Terminal Aerodrome Forecast
Issued by NWS Hastings, NE

Home | Current Version | Previous Version | Text Only | Print | Product List | Glossary On
Versions: 1 2 3 4 5 6 7 8 9 10 11 12 13 14 15 16 17 18 19 20 21 22 23 24 25 26 27 28 29 30 31 32 33 34 35 36 37 38 39 40 41 42
570
FTUS43 KGID 291120
TAFGRI
TAF
KGRI 291120Z 2912/3012 03014KT 4SM -SHRA OVC005
      TEMPO 2912/2915 2SM -SHRA OVC003
     FM291500 03015G23KT 4SM -SHRA OVC008
     FM291800 03017G24KT 3SM SHRA OVC012
     FM300000 03016G26KT 3SM -SHRA OVC012
     FM300600 01014G21KT P6SM OVC012
     FM301000 36013G20KT P6SM OVC008=

USA.gov is the U.S. government's official web portal to all federal, state and local government web resources and services.